Time;durP1;ratioP1;P1;durP2;ratioP2;P2;SDS_P1;SDS_P2;PMS_P1;PMS_P2;Temp;Humidity;BMP_temperature;BMP_pressure;BME280_temperature;BME280_humidity;BME280_pressure;Samples;Min_cycle;Max_cycle;Signal;HPM_P1;HPM_P2
2023/04/10 00:02:09;;;;;;;46.65;30.75;;;7.90;99.90;;;;;;4973575;28;20478;-73
2023/04/10 00:04:35;;;;;;;57.78;32.88;;;7.70;99.90;;;;;;4972790;28;20033;-75
2023/04/10 00:07:01;;;;;;;54.83;32.63;;;7.70;99.90;;;;;;4973310;28;20050;-74
2023/04/10 00:09:27;;;;;;;53.35;33.78;;;7.60;99.90;;;;;;4965308;28;20023;-76
2023/04/10 00:11:53;;;;;;;70.43;42.15;;;7.60;99.90;;;;;;4967508;28;20114;-74
2023/04/10 00:14:22;;;;;;;59.08;34.38;;;7.50;99.90;;;;;;4973071;28;20146;-73
2023/04/10 00:16:51;;;;;;;53.80;35.65;;;7.40;99.90;;;;;;4973514;28;20034;-73
2023/04/10 00:19:17;;;;;;;45.67;28.63;;;7.30;99.90;;;;;;4972637;28;20034;-75
2023/04/10 00:21:43;;;;;;;44.35;29.65;;;7.20;99.90;;;;;;4973293;28;20055;-76
2023/04/10 00:24:08;;;;;;;45.03;27.80;;;7.10;99.90;;;;;;4973006;28;20074;-73
2023/04/10 00:26:35;;;;;;;44.55;28.55;;;7.10;99.90;;;;;;4973320;28;20026;-71
2023/04/10 00:29:02;;;;;;;43.05;26.30;;;7.00;99.90;;;;;;4971376;28;20022;-76
2023/04/10 00:31:28;;;;;;;42.10;25.95;;;7.00;99.90;;;;;;4953998;28;20478;-76
2023/04/10 00:33:54;;;;;;;40.95;27.08;;;7.00;99.90;;;;;;4959266;28;20031;-75
2023/04/10 00:36:20;;;;;;;42.40;26.38;;;6.90;99.90;;;;;;4968259;28;20030;-73
2023/04/10 00:38:47;;;;;;;43.55;27.63;;;6.90;99.90;;;;;;4973375;28;20034;-74
2023/04/10 00:41:13;;;;;;;47.60;28.77;;;6.80;99.90;;;;;;4972661;28;20039;-74
2023/04/10 00:43:39;;;;;;;44.95;27.48;;;6.80;99.90;;;;;;4955556;28;20027;-76
2023/04/10 00:46:06;;;;;;;43.17;26.88;;;6.90;99.90;;;;;;4972969;28;20454;-76
2023/04/10 00:48:33;;;;;;;52.00;30.45;;;6.80;99.90;;;;;;4973412;28;20599;-76
2023/04/10 00:51:00;;;;;;;46.65;28.63;;;6.90;99.90;;;;;;4955361;28;20039;-74
2023/04/10 00:53:27;;;;;;;42.53;27.00;;;6.90;99.90;;;;;;4971357;28;20086;-75
2023/04/10 00:55:54;;;;;;;43.80;26.45;;;6.90;99.90;;;;;;4947445;28;20031;-76
2023/04/10 00:58:20;;;;;;;42.90;26.40;;;6.90;99.90;;;;;;4971903;28;20031;-76
2023/04/10 01:00:47;;;;;;;43.33;28.00;;;7.00;99.90;;;;;;4972852;28;20047;-73
2023/04/10 01:03:16;;;;;;;44.45;28.15;;;7.00;99.90;;;;;;4953307;28;20023;-75
2023/04/10 01:05:52;;;;;;;49.85;27.92;;;7.10;99.90;;;;;;4972350;28;20030;-74
2023/04/10 01:08:38;;;;;;;41.88;27.02;;;7.10;99.90;;;;;;4943400;28;20067;-75
2023/04/10 01:11:12;;;;;;;38.58;24.70;;;7.10;99.90;;;;;;4973246;28;20521;-75
2023/04/10 01:13:54;;;;;;;38.42;23.83;;;7.10;99.90;;;;;;4977039;28;20035;-76
2023/04/10 01:16:26;;;;;;;37.60;23.30;;;7.20;99.90;;;;;;4960272;28;20050;-75
2023/04/10 01:19:30;;;;;;;36.08;22.40;;;7.20;99.90;;;;;;4945335;28;20035;-75
2023/04/10 01:21:58;;;;;;;;;;;7.20;99.90;;;;;;4976719;28;20121;-75
2023/04/10 01:24:47;;;;;;;34.88;22.75;;;7.20;99.90;;;;;;4959093;28;19953;-75
2023/04/10 01:27:54;;;;;;;34.13;21.20;;;7.20;99.90;;;;;;4974765;28;20378;-74
2023/04/10 01:30:22;;;;;;;32.85;21.55;;;7.10;99.90;;;;;;4974482;28;20133;-75
2023/04/10 01:32:50;;;;;;;33.70;22.80;;;7.00;99.90;;;;;;4976597;28;20035;-74
2023/04/10 01:35:16;;;;;;;36.80;21.63;;;7.00;99.90;;;;;;4975856;28;20498;-75
2023/04/10 01:37:46;;;;;;;35.95;22.27;;;7.00;99.90;;;;;;4969042;28;20565;-73
2023/04/10 01:40:15;;;;;;;36.67;23.02;;;7.10;99.90;;;;;;4958931;28;20039;-75
2023/04/10 01:42:54;;;;;;;34.35;21.42;;;7.00;99.90;;;;;;4974851;28;20033;-74
2023/04/10 01:45:27;;;;;;;33.22;21.27;;;7.00;99.90;;;;;;4971665;28;20080;-75
2023/04/10 01:47:54;;;;;;;32.10;20.77;;;7.00;99.90;;;;;;4939003;29;20046;-75
2023/04/10 01:50:23;;;;;;;32.28;19.92;;;6.90;99.90;;;;;;4971303;28;20110;-75
2023/04/10 01:52:51;;;;;;;32.47;20.88;;;6.90;99.90;;;;;;4938341;29;20494;-73
2023/04/10 01:55:24;;;;;;;34.38;21.85;;;6.90;99.90;;;;;;4967176;28;20034;-75
2023/04/10 01:57:55;;;;;;;33.00;21.00;;;6.90;99.90;;;;;;4955578;29;20114;-74
2023/04/10 02:00:22;;;;;;;33.17;20.20;;;6.90;99.90;;;;;;4939163;29;20553;-74
2023/04/10 02:02:49;;;;;;;32.00;20.50;;;6.90;99.90;;;;;;4954828;28;20036;-73
2023/04/10 02:05:16;;;;;;;29.23;19.42;;;6.90;99.90;;;;;;4954995;29;20031;-74
2023/04/10 02:07:49;;;;;;;31.15;20.13;;;6.90;99.90;;;;;;4956119;29;20016;-75
2023/04/10 02:10:29;;;;;;;29.08;19.83;;;6.90;99.90;;;;;;4939260;29;20031;-74
2023/04/10 02:13:03;;;;;;;33.63;20.58;;;6.90;99.90;;;;;;4969278;28;20031;-74
2023/04/10 02:15:31;;;;;;;29.48;19.20;;;6.90;99.90;;;;;;4956069;29;20634;-74
2023/04/10 02:17:59;;;;;;;32.10;21.40;;;6.80;99.90;;;;;;4950622;28;20027;-73
2023/04/10 02:20:25;;;;;;;31.10;20.08;;;6.90;99.90;;;;;;4949186;28;20047;-74
2023/04/10 02:22:53;;;;;;;33.53;20.15;;;6.80;99.90;;;;;;4951618;29;20082;-73
2023/04/10 02:25:19;;;;;;;27.70;18.05;;;6.80;99.90;;;;;;4949413;29;20027;-73
2023/04/10 02:27:45;;;;;;;29.67;18.70;;;6.80;99.90;;;;;;4954652;28;20023;-73
2023/04/10 02:30:12;;;;;;;34.03;21.00;;;6.80;99.90;;;;;;4955596;29;20053;-75
2023/04/10 02:32:38;;;;;;;30.92;20.20;;;6.80;99.90;;;;;;4954792;29;20024;-75
2023/04/10 02:35:07;;;;;;;31.52;18.90;;;6.80;99.90;;;;;;4954374;29;20031;-75
2023/04/10 02:37:33;;;;;;;31.90;19.27;;;6.70;99.90;;;;;;4954314;28;20035;-75
2023/04/10 02:40:02;;;;;;;32.72;19.85;;;6.70;99.90;;;;;;4954454;29;20050;-75
2023/04/10 02:42:38;;;;;;;27.90;18.52;;;6.70;99.90;;;;;;4954736;28;20030;-75
2023/04/10 02:45:05;;;;;;;31.77;19.50;;;6.70;99.90;;;;;;4968768;28;20043;-74
2023/04/10 02:47:36;;;;;;;32.10;18.95;;;6.80;99.90;;;;;;4954349;29;20031;-71
2023/04/10 02:50:02;;;;;;;31.08;19.65;;;6.80;99.90;;;;;;4950987;28;20094;-71
2023/04/10 02:52:32;;;;;;;31.67;20.08;;;6.70;99.90;;;;;;4954318;28;20027;-73
2023/04/10 02:54:58;;;;;;;29.52;18.52;;;6.80;99.90;;;;;;4965820;28;20360;-74
2023/04/10 02:57:27;;;;;;;29.70;19.33;;;6.80;99.90;;;;;;4954321;29;20056;-73
2023/04/10 02:59:53;;;;;;;28.52;18.08;;;6.80;99.90;;;;;;4953916;28;20065;-74
2023/04/10 03:02:22;;;;;;;28.83;18.17;;;6.80;99.90;;;;;;4970338;28;20035;-74
2023/04/10 03:04:50;;;;;;;30.33;18.65;;;6.80;99.90;;;;;;4953624;28;20118;-74
2023/04/10 03:07:16;;;;;;;29.85;18.60;;;6.80;99.90;;;;;;4968534;28;20027;-75
2023/04/10 03:09:42;;;;;;;32.03;19.00;;;6.80;99.90;;;;;;4969994;28;20475;-73
2023/04/10 03:12:08;;;;;;;28.42;17.58;;;6.80;99.90;;;;;;4955327;29;20061;-75
2023/04/10 03:14:34;;;;;;;29.77;19.05;;;6.80;99.90;;;;;;4953869;29;20176;-74
2023/04/10 03:17:00;;;;;;;30.30;18.40;;;6.80;99.90;;;;;;4953277;29;20471;-74
2023/04/10 03:19:26;;;;;;;29.20;18.25;;;6.80;99.90;;;;;;4954973;29;20058;-74
2023/04/10 03:21:52;;;;;;;27.30;16.80;;;6.80;99.90;;;;;;4952990;28;20039;-75
2023/04/10 03:24:18;;;;;;;30.02;17.67;;;6.90;99.90;;;;;;4952052;28;20105;-74
2023/04/10 03:26:44;;;;;;;29.27;18.80;;;6.90;99.90;;;;;;4952205;29;20519;-73
2023/04/10 03:29:11;;;;;;;29.88;19.40;;;6.90;99.90;;;;;;4954833;29;20098;-75
2023/04/10 03:31:37;;;;;;;30.33;19.13;;;6.90;99.90;;;;;;4954668;28;20146;-74
2023/04/10 03:34:03;;;;;;;30.65;19.15;;;6.90;99.90;;;;;;4954584;29;20035;-74
2023/04/10 03:36:28;;;;;;;29.13;18.42;;;6.80;99.90;;;;;;4967140;28;20039;-75
2023/04/10 03:38:54;;;;;;;30.90;18.27;;;6.80;99.90;;;;;;4963646;28;20086;-75
2023/04/10 03:41:21;;;;;;;29.75;18.23;;;6.80;99.90;;;;;;4954532;28;20042;-75
2023/04/10 03:43:46;;;;;;;29.58;18.38;;;6.80;99.90;;;;;;4955518;28;20530;-75
2023/04/10 03:46:12;;;;;;;29.95;17.75;;;6.80;99.90;;;;;;4955818;28;20063;-75
2023/04/10 03:48:41;;;;;;;28.88;18.13;;;6.80;99.90;;;;;;4943406;28;20027;-76
2023/04/10 03:51:08;;;;;;;28.02;16.80;;;6.80;99.90;;;;;;4953662;29;20035;-75
2023/04/10 03:53:35;;;;;;;31.20;18.92;;;6.80;99.90;;;;;;4954750;28;20097;-75
2023/04/10 03:56:07;;;;;;;27.00;17.15;;;6.80;99.90;;;;;;4953388;29;20479;-73
2023/04/10 03:58:34;;;;;;;28.02;18.38;;;6.80;99.90;;;;;;4959353;28;20034;-73
2023/04/10 04:01:00;;;;;;;25.30;17.83;;;6.90;99.90;;;;;;4960245;28;20372;-74
2023/04/10 04:03:35;;;;;;;33.20;19.70;;;6.90;99.90;;;;;;4949678;28;20153;-74
2023/04/10 04:06:20;;;;;;;33.17;19.55;;;6.90;99.90;;;;;;4965710;28;20041;-75
2023/04/10 04:09:09;;;;;;;34.85;20.08;;;6.90;99.90;;;;;;4958282;28;20450;-73
2023/04/10 04:11:50;;;;;;;34.38;21.98;;;6.80;99.90;;;;;;4956176;28;20034;-74
2023/04/10 04:14:36;;;;;;;31.35;20.15;;;6.80;99.90;;;;;;4972442;28;20085;-73
2023/04/10 04:17:17;;;;;;;31.38;19.65;;;6.80;99.90;;;;;;4953621;28;20037;-74
2023/04/10 04:20:01;;;;;;;30.33;18.55;;;6.80;99.90;;;;;;4961526;28;20062;-74
2023/04/10 04:22:46;;;;;;;29.25;18.25;;;6.80;99.90;;;;;;4973025;28;20085;-73
2023/04/10 04:25:32;;;;;;;26.52;17.27;;;6.80;99.90;;;;;;4894518;29;20047;-75
2023/04/10 04:28:07;;;;;;;28.02;17.15;;;6.80;99.90;;;;;;4879061;29;20044;-73
2023/04/10 04:30:43;;;;;;;27.08;17.77;;;6.80;99.90;;;;;;4878910;29;20427;-73
2023/04/10 04:33:16;;;;;;;;;;;6.80;99.90;;;;;;4879396;29;20060;-74
2023/04/10 04:36:11;;;;;;;35.20;20.98;;;6.80;99.90;;;;;;4880319;29;19912;-75
2023/04/10 04:39:12;;;;;;;35.28;23.73;;;6.80;99.90;;;;;;4839246;29;20499;-75
2023/04/10 04:41:51;;;;;;;32.72;21.95;;;6.80;99.90;;;;;;4838508;29;20042;-75
2023/04/10 04:44:37;;;;;;;35.95;23.45;;;6.80;99.90;;;;;;4838743;29;20069;-76
2023/04/10 04:47:27;;;;;;;31.63;20.27;;;6.90;99.90;;;;;;4834260;29;20443;-74
2023/04/10 04:49:55;;;;;;;33.58;21.70;;;6.90;99.90;;;;;;4839014;29;20418;-75
2023/04/10 04:52:22;;;;;;;30.75;20.95;;;6.90;99.90;;;;;;4838795;29;20054;-75
2023/04/10 04:55:23;;;;;;;30.90;19.15;;;6.90;99.90;;;;;;4784398;29;20182;-74
2023/04/10 04:57:52;;;;;;;30.88;19.73;;;6.80;99.90;;;;;;4784242;29;20028;-74
2023/04/10 05:00:27;;;;;;;32.17;20.25;;;6.80;99.90;;;;;;4767358;30;20061;-76
2023/04/10 05:03:01;;;;;;;31.55;20.42;;;6.80;99.90;;;;;;4808063;29;20042;-76
2023/04/10 05:05:37;;;;;;;29.25;18.63;;;6.80;99.90;;;;;;4838952;29;20038;-76
2023/04/10 05:08:21;;;;;;;30.15;19.60;;;6.80;99.90;;;;;;4838996;29;20528;-71
2023/04/10 05:11:11;;;;;;;31.55;19.98;;;6.80;99.90;;;;;;4854356;29;20625;-76
2023/04/10 05:13:54;;;;;;;29.75;19.52;;;6.80;99.90;;;;;;4879805;29;20045;-73
2023/04/10 05:16:43;;;;;;;32.45;20.75;;;6.80;99.90;;;;;;4806203;29;20039;-75
2023/04/10 05:19:18;;;;;;;32.92;20.10;;;6.90;99.90;;;;;;4811638;29;20062;-74
2023/04/10 05:21:50;;;;;;;33.58;21.50;;;6.80;99.90;;;;;;4799299;29;20398;-77
2023/04/10 05:24:31;;;;;;;35.03;22.17;;;6.80;99.90;;;;;;4784406;29;20031;-75
2023/04/10 05:27:35;;;;;;;32.20;21.35;;;6.80;99.90;;;;;;4802231;29;20428;-75
2023/04/10 05:30:24;;;;;;;31.27;18.80;;;6.90;99.90;;;;;;4853313;29;20046;-75
2023/04/10 05:33:09;;;;;;;34.35;21.90;;;6.90;99.90;;;;;;4857020;29;20045;-76
2023/04/10 05:36:04;;;;;;;29.00;18.60;;;6.90;99.90;;;;;;4838605;29;20080;-76
2023/04/10 05:38:38;;;;;;;28.13;18.83;;;7.00;99.90;;;;;;4838096;29;20070;-75
2023/04/10 05:41:15;;;;;;;35.80;22.48;;;7.10;99.90;;;;;;4838701;29;20417;-72
2023/04/10 05:43:57;;;;;;;29.80;19.70;;;7.20;99.90;;;;;;4822725;29;20054;-74
2023/04/10 05:46:31;;;;;;;29.02;19.40;;;7.20;99.90;;;;;;4838146;29;20050;-76
2023/04/10 05:49:32;;;;;;;30.65;19.02;;;7.20;99.90;;;;;;4838541;29;20069;-76
2023/04/10 05:52:25;;;;;;;34.45;21.70;;;7.30;99.90;;;;;;4838316;29;20103;-77
2023/04/10 05:55:20;;;;;;;33.63;19.20;;;7.40;99.90;;;;;;4816632;29;20031;-74
2023/04/10 05:58:02;;;;;;;30.58;19.27;;;7.50;99.90;;;;;;4840929;29;20095;-76
2023/04/10 06:01:06;;;;;;;29.13;19.05;;;7.50;99.90;;;;;;4859893;29;20098;-74
2023/04/10 06:03:56;;;;;;;27.83;18.25;;;7.50;99.90;;;;;;4859945;29;20068;-76
2023/04/10 06:06:24;;;;;;;26.63;17.55;;;7.70;99.90;;;;;;4859709;29;20034;-75
2023/04/10 06:08:50;;;;;;;30.60;18.80;;;7.60;99.90;;;;;;4845768;29;20070;-74
2023/04/10 06:11:16;;;;;;;28.00;18.30;;;7.60;99.90;;;;;;4826400;29;20038;-77
2023/04/10 06:13:46;;;;;;;31.52;19.48;;;7.70;99.90;;;;;;4841109;29;20042;-73
2023/04/10 06:16:14;;;;;;;34.28;21.27;;;7.60;99.90;;;;;;4826351;29;20037;-75
2023/04/10 06:18:40;;;;;;;31.83;21.05;;;7.80;99.90;;;;;;4825756;29;20038;-72
2023/04/10 06:21:07;;;;;;;36.17;21.65;;;7.70;99.90;;;;;;4841225;29;20050;-74
2023/04/10 06:23:32;;;;;;;28.48;18.20;;;7.80;99.90;;;;;;4869857;29;20029;-75
2023/04/10 06:25:59;;;;;;;31.77;18.73;;;7.70;99.90;;;;;;4881501;29;20048;-75
2023/04/10 06:28:25;;;;;;;29.20;19.55;;;7.70;99.90;;;;;;4897553;29;20496;-77
2023/04/10 06:30:55;;;;;;;27.92;17.92;;;7.70;99.90;;;;;;4901360;29;20059;-73
2023/04/10 06:33:28;;;;;;;32.28;19.98;;;7.60;99.90;;;;;;4919051;29;20035;-75
2023/04/10 06:35:56;;;;;;;37.50;20.20;;;7.60;99.90;;;;;;4918987;29;20039;-76
2023/04/10 06:38:22;;;;;;;34.28;20.35;;;7.60;99.90;;;;;;4918930;29;20051;-76
2023/04/10 06:40:49;;;;;;;27.88;18.60;;;7.60;99.90;;;;;;4947415;28;20049;-75
2023/04/10 06:43:14;;;;;;;32.70;21.17;;;7.60;99.90;;;;;;4975167;28;20026;-77
2023/04/10 06:45:41;;;;;;;26.25;18.00;;;7.60;99.90;;;;;;4957877;28;20074;-76
2023/04/10 06:48:07;;;;;;;28.83;19.13;;;7.60;99.90;;;;;;4975385;28;20054;-77
2023/04/10 06:50:33;;;;;;;31.13;18.92;;;7.60;99.90;;;;;;4975333;28;20043;-77
2023/04/10 06:52:59;;;;;;;26.88;18.95;;;7.60;99.90;;;;;;4983235;28;20105;-76
2023/04/10 06:55:25;;;;;;;29.17;19.38;;;7.70;99.90;;;;;;4980084;28;20037;-77
2023/04/10 06:57:51;;;;;;;30.30;19.55;;;7.80;99.90;;;;;;4974865;28;20022;-76
2023/04/10 07:00:19;;;;;;;29.30;18.00;;;7.90;99.90;;;;;;4974734;28;20041;-76
2023/04/10 07:02:46;;;;;;;25.92;17.80;;;7.90;99.90;;;;;;4974809;28;20047;-76
2023/04/10 07:05:12;;;;;;;27.30;16.48;;;7.90;99.90;;;;;;4974764;28;20031;-75
2023/04/10 07:07:38;;;;;;;24.70;15.30;;;7.90;99.90;;;;;;4961192;28;20364;-75
2023/04/10 07:10:05;;;;;;;28.25;18.25;;;7.90;99.90;;;;;;4974434;28;20558;-76
2023/04/10 07:12:32;;;;;;;27.75;18.05;;;8.10;99.90;;;;;;4974386;28;20438;-77
2023/04/10 07:14:58;;;;;;;25.55;17.35;;;8.10;99.90;;;;;;4974207;28;20031;-75
2023/04/10 07:17:24;;;;;;;26.88;16.77;;;8.40;99.90;;;;;;4974756;28;20085;-76
2023/04/10 07:19:50;;;;;;;27.08;17.63;;;8.50;99.90;;;;;;4974092;28;20039;-75
2023/04/10 07:22:15;;;;;;;26.58;17.35;;;8.50;99.90;;;;;;4971690;28;20027;-76
2023/04/10 07:24:41;;;;;;;26.02;17.15;;;8.60;99.90;;;;;;4963055;28;20027;-75
2023/04/10 07:27:07;;;;;;;26.25;17.77;;;8.80;99.90;;;;;;4974932;28;20034;-76
2023/04/10 07:29:33;;;;;;;25.92;17.33;;;8.90;99.90;;;;;;4974221;28;20034;-76
2023/04/10 07:31:59;;;;;;;28.33;16.90;;;8.90;99.90;;;;;;4974171;28;20048;-76
2023/04/10 07:34:25;;;;;;;25.40;16.95;;;8.80;99.90;;;;;;4971297;28;20023;-76
2023/04/10 07:36:51;;;;;;;26.17;17.13;;;9.00;99.90;;;;;;4965839;28;20022;-76
2023/04/10 07:39:17;;;;;;;28.67;17.67;;;9.20;99.90;;;;;;4961491;28;20053;-77
2023/04/10 07:41:43;;;;;;;29.65;17.75;;;9.10;99.90;;;;;;4973045;28;20128;-77
2023/04/10 07:44:09;;;;;;;23.20;15.40;;;9.20;99.90;;;;;;4967989;28;20043;-77
2023/04/10 07:46:35;;;;;;;28.88;18.40;;;9.10;99.90;;;;;;4973842;28;20022;-77
2023/04/10 07:49:02;;;;;;;25.73;15.77;;;9.00;99.90;;;;;;4971715;28;20109;-76
2023/04/10 07:51:28;;;;;;;25.17;16.08;;;9.00;99.90;;;;;;4969005;28;20109;-75
2023/04/10 07:53:55;;;;;;;25.73;15.85;;;8.90;99.90;;;;;;4970040;28;20026;-75
2023/04/10 07:56:21;;;;;;;26.08;17.48;;;8.90;99.90;;;;;;4969661;28;20027;-75
2023/04/10 07:58:47;;;;;;;22.90;14.40;;;8.90;99.90;;;;;;4973903;28;20034;-74
2023/04/10 08:01:14;;;;;;;24.48;16.75;;;8.90;99.90;;;;;;4968668;28;20118;-75
2023/04/10 08:03:45;;;;;;;25.23;15.75;;;8.90;99.90;;;;;;4973823;28;20026;-75
2023/04/10 08:06:12;;;;;;;23.52;15.95;;;9.00;99.90;;;;;;4971130;28;20083;-76
2023/04/10 08:08:39;;;;;;;23.35;15.25;;;9.00;99.90;;;;;;4972971;28;20113;-75
2023/04/10 08:11:28;;;;;;;25.02;16.08;;;9.00;99.90;;;;;;4968081;28;20061;-72
2023/04/10 08:13:58;;;;;;;26.60;16.50;;;9.10;99.90;;;;;;4967779;28;20014;-75
2023/04/10 08:16:25;;;;;;;26.85;16.45;;;9.30;99.90;;;;;;4965610;28;20391;-76
2023/04/10 08:18:52;;;;;;;25.48;16.67;;;9.40;99.90;;;;;;4969676;28;20089;-73
2023/04/10 08:21:20;;;;;;;25.48;17.45;;;9.50;99.90;;;;;;4968069;28;20047;-75
2023/04/10 08:23:46;;;;;;;25.60;17.77;;;9.50;99.90;;;;;;4972597;28;20074;-75
2023/04/10 08:26:12;;;;;;;24.60;16.15;;;9.80;99.90;;;;;;4973494;28;20039;-75
2023/04/10 08:28:38;;;;;;;27.00;16.77;;;9.90;99.90;;;;;;4973130;28;20023;-76
2023/04/10 08:31:04;;;;;;;26.38;17.50;;;10.20;99.90;;;;;;4973334;28;20034;-76
2023/04/10 08:33:30;;;;;;;24.88;15.73;;;10.20;99.90;;;;;;4973089;28;20501;-76
2023/04/10 08:35:56;;;;;;;26.33;16.55;;;10.10;99.90;;;;;;4973210;28;20490;-76
2023/04/10 08:38:23;;;;;;;22.63;15.10;;;10.30;99.90;;;;;;4972858;28;20030;-73
2023/04/10 08:40:50;;;;;;;22.75;15.95;;;10.30;99.90;;;;;;4973171;28;20042;-75
2023/04/10 08:43:16;;;;;;;26.08;16.30;;;10.30;99.90;;;;;;4973152;28;20105;-71
2023/04/10 08:45:42;;;;;;;22.70;15.77;;;10.40;99.90;;;;;;4972711;28;20054;-76
2023/04/10 08:48:09;;;;;;;24.65;15.32;;;10.50;99.90;;;;;;4972909;28;20086;-75
2023/04/10 08:50:40;;;;;;;24.40;15.68;;;10.40;99.90;;;;;;4973219;28;20031;-74
2023/04/10 08:53:14;;;;;;;26.33;17.05;;;10.30;99.90;;;;;;4973147;28;20383;-76
2023/04/10 08:55:41;;;;;;;23.15;15.57;;;10.50;99.90;;;;;;4972958;28;20113;-72
2023/04/10 08:58:07;;;;;;;27.63;16.10;;;10.70;99.90;;;;;;4973033;28;20023;-74
2023/04/10 09:00:37;;;;;;;23.50;15.25;;;10.90;99.90;;;;;;4968829;28;20035;-75
2023/04/10 09:03:13;;;;;;;25.83;15.65;;;10.70;99.90;;;;;;4973085;28;20023;-74
2023/04/10 09:05:39;;;;;;;25.08;15.90;;;11.10;99.90;;;;;;4973013;28;20078;-75
2023/04/10 09:08:09;;;;;;;24.45;15.38;;;11.00;99.90;;;;;;4972790;28;20050;-75
2023/04/10 09:10:35;;;;;;;24.95;15.57;;;11.10;99.90;;;;;;4973048;28;20110;-77
2023/04/10 09:13:01;;;;;;;27.13;16.20;;;11.10;99.90;;;;;;4972775;28;20440;-73
2023/04/10 09:15:27;;;;;;;25.60;16.15;;;11.20;99.90;;;;;;4973223;28;20114;-70
2023/04/10 09:17:59;;;;;;;26.45;15.73;;;11.50;99.90;;;;;;4972621;28;20058;-71
2023/04/10 09:20:27;;;;;;;32.70;19.33;;;11.40;99.90;;;;;;4973117;28;20039;-76
2023/04/10 09:22:53;;;;;;;26.23;15.65;;;11.60;99.90;;;;;;4960239;28;20368;-72
2023/04/10 09:25:37;;;;;;;24.95;16.77;;;11.70;99.90;;;;;;4972837;28;20037;-73
2023/04/10 09:28:06;;;;;;;24.50;15.43;;;11.90;99.90;;;;;;4973096;28;20118;-75
2023/04/10 09:30:38;;;;;;;25.67;15.93;;;11.90;99.90;;;;;;4973499;28;20025;-75
2023/04/10 09:33:26;;;;;;;26.17;16.85;;;11.80;99.90;;;;;;4976883;28;20089;-71
2023/04/10 09:35:52;;;;;;;26.75;16.23;;;12.00;99.90;;;;;;4977065;28;20030;-76
2023/04/10 09:38:21;;;;;;;25.80;15.38;;;12.10;99.90;;;;;;4976184;28;20051;-72
2023/04/10 09:40:48;;;;;;;24.35;16.55;;;12.00;99.90;;;;;;4976890;28;20045;-76
2023/04/10 09:43:18;;;;;;;23.40;15.27;;;12.10;99.90;;;;;;4976066;28;20035;-71
2023/04/10 09:45:52;;;;;;;24.77;16.58;;;12.20;99.90;;;;;;4975966;28;20446;-75
2023/04/10 09:48:19;;;;;;;24.50;15.90;;;12.30;99.90;;;;;;4976213;28;20019;-77
2023/04/10 09:50:45;;;;;;;24.02;16.52;;;12.30;99.90;;;;;;4976412;28;20041;-77
2023/04/10 09:53:19;;;;;;;25.35;18.33;;;12.50;99.90;;;;;;4975232;28;20031;-74
2023/04/10 09:55:46;;;;;;;29.83;16.40;;;12.30;99.90;;;;;;4974344;28;20027;-74
2023/04/10 09:58:13;;;;;;;24.40;15.32;;;12.50;99.90;;;;;;4976169;28;20026;-74
2023/04/10 10:00:40;;;;;;;26.05;15.00;;;12.40;99.90;;;;;;4975816;28;20126;-76
2023/04/10 10:03:10;;;;;;;23.25;16.05;;;12.50;99.90;;;;;;4976234;28;20027;-70
2023/04/10 10:05:43;;;;;;;23.55;14.70;;;12.60;99.90;;;;;;4974549;28;20035;-75
2023/04/10 10:08:11;;;;;;;24.85;16.17;;;12.40;99.90;;;;;;4963424;28;20451;-75
2023/04/10 10:10:44;;;;;;;27.13;16.13;;;12.60;99.90;;;;;;4972900;28;20529;-74
2023/04/10 10:13:17;;;;;;;27.20;18.55;;;12.60;99.90;;;;;;4974409;28;20027;-77
2023/04/10 10:16:03;;;;;;;23.52;15.35;;;12.60;99.90;;;;;;4975601;28;20043;-77
2023/04/10 10:18:50;;;;;;;24.08;16.15;;;12.40;99.90;;;;;;4976113;28;20045;-77
2023/04/10 10:21:19;;;;;;;24.45;16.08;;;12.30;99.90;;;;;;4975728;28;20066;-76
2023/04/10 10:23:47;;;;;;;23.60;15.75;;;12.40;99.90;;;;;;4973449;28;20058;-76
2023/04/10 10:26:15;;;;;;;23.73;15.20;;;12.40;99.90;;;;;;4975735;28;20112;-74
2023/04/10 10:28:41;;;;;;;26.35;17.88;;;12.50;99.90;;;;;;4975665;28;20451;-77
2023/04/10 10:31:08;;;;;;;27.52;17.35;;;12.70;99.90;;;;;;4972802;28;20034;-71
2023/04/10 10:33:37;;;;;;;24.35;17.15;;;12.70;99.90;;;;;;4970932;28;20034;-76
2023/04/10 10:36:05;;;;;;;28.30;18.17;;;12.70;99.90;;;;;;4975707;28;20459;-76
2023/04/10 10:38:32;;;;;;;25.17;16.48;;;12.60;99.90;;;;;;4975223;28;20065;-75
2023/04/10 10:41:01;;;;;;;26.60;17.27;;;12.70;99.90;;;;;;4975043;28;20515;-75
2023/04/10 10:43:55;;;;;;;25.75;16.15;;;12.60;99.90;;;;;;4975323;28;20077;-75
2023/04/10 10:46:34;;;;;;;28.33;17.63;;;12.80;99.90;;;;;;4964922;28;20487;-75
2023/04/10 10:49:01;;;;;;;26.48;18.40;;;12.90;99.90;;;;;;4968713;28;20043;-74
2023/04/10 10:52:02;;;;;;;27.33;17.92;;;13.30;99.90;;;;;;4971343;28;20035;-74
2023/04/10 10:54:33;;;;;;;26.45;16.58;;;13.40;99.90;;;;;;4909569;29;20039;-74
2023/04/10 10:57:00;;;;;;;22.38;15.25;;;13.30;99.90;;;;;;4896675;29;20087;-74
2023/04/10 10:59:45;;;;;;;26.55;17.15;;;13.60;99.90;;;;;;4896423;29;20033;-72
2023/04/10 11:02:15;;;;;;;23.15;16.23;;;13.40;99.90;;;;;;4895319;29;20063;-75
2023/04/10 11:04:45;;;;;;;27.42;17.77;;;13.50;99.90;;;;;;4884098;29;20068;-74
2023/04/10 11:07:12;;;;;;;25.08;17.38;;;13.90;99.90;;;;;;4896458;29;20072;-75
2023/04/10 11:09:51;;;;;;;29.10;18.15;;;13.90;99.90;;;;;;4896402;29;20067;-75
2023/04/10 11:12:24;;;;;;;24.50;16.75;;;13.60;99.90;;;;;;4895717;29;20127;-74
2023/04/10 11:15:01;;;;;;;26.80;16.95;;;13.40;99.90;;;;;;4896591;29;20491;-75
2023/04/10 11:17:47;;;;;;;28.67;17.60;;;13.60;99.90;;;;;;4896220;29;20604;-72
2023/04/10 11:20:15;;;;;;;23.48;15.50;;;13.80;99.90;;;;;;4896200;29;20212;-74
2023/04/10 11:23:09;;;;;;;23.05;16.48;;;14.10;99.90;;;;;;4895806;29;20438;-74
2023/04/10 11:26:01;;;;;;;22.30;15.23;;;14.20;99.90;;;;;;4896193;29;20033;-75
2023/04/10 11:28:38;;;;;;;26.08;16.23;;;14.30;99.90;;;;;;4924650;28;20147;-74
2023/04/10 11:31:21;;;;;;;24.83;16.40;;;14.20;99.90;;;;;;4969514;28;20487;-75
2023/04/10 11:33:48;;;;;;;23.05;14.52;;;14.30;99.90;;;;;;4973902;28;20038;-74
2023/04/10 11:36:16;;;;;;;22.15;15.35;;;14.20;99.80;;;;;;4974235;28;20363;-75
2023/04/10 11:39:11;;;;;;;22.52;14.75;;;14.30;99.90;;;;;;4961574;28;20027;-71
2023/04/10 11:41:44;;;;;;;24.52;14.93;;;14.60;99.90;;;;;;4970704;28;20110;-75
2023/04/10 11:44:12;;;;;;;24.50;16.13;;;14.90;99.90;;;;;;4970994;28;20047;-74
2023/04/10 11:46:43;;;;;;;25.63;16.95;;;14.80;99.50;;;;;;4966377;28;20033;-75
2023/04/10 11:49:10;;;;;;;28.60;18.92;;;14.70;98.40;;;;;;4973292;28;20109;-75
2023/04/10 11:51:38;;;;;;;29.23;16.67;;;14.60;99.20;;;;;;4974558;28;20058;-75
2023/04/10 11:54:15;;;;;;;24.50;16.73;;;14.70;98.70;;;;;;4971911;28;20458;-76
2023/04/10 11:56:44;;;;;;;22.15;15.65;;;14.90;99.40;;;;;;4973311;28;20035;-74
2023/04/10 11:59:12;;;;;;;23.48;15.48;;;14.90;98.10;;;;;;4974056;28;20070;-74
2023/04/10 12:01:40;;;;;;;23.95;15.90;;;14.80;99.60;;;;;;4973103;28;20101;-74
2023/04/10 12:04:19;;;;;;;23.45;15.65;;;14.80;98.60;;;;;;4973839;28;20023;-74
2023/04/10 12:06:47;;;;;;;23.80;16.00;;;14.80;99.40;;;;;;4973631;28;20023;-75
2023/04/10 12:09:15;;;;;;;27.92;16.40;;;14.70;98.60;;;;;;4973443;28;20022;-75
2023/04/10 12:11:48;;;;;;;26.17;18.05;;;14.50;99.90;;;;;;4973986;28;20031;-75
2023/04/10 12:14:15;;;;;;;26.17;16.77;;;14.20;99.90;;;;;;4966946;28;20094;-75
2023/04/10 12:16:40;;;;;;;24.58;16.45;;;14.10;99.90;;;;;;4970674;28;20019;-75
2023/04/10 12:19:06;;;;;;;26.10;17.25;;;13.70;99.90;;;;;;4968626;28;20027;-74
2023/04/10 12:21:38;;;;;;;27.48;18.70;;;13.50;99.90;;;;;;4971731;28;20394;-76
2023/04/10 12:24:04;;;;;;;29.17;18.52;;;13.30;99.90;;;;;;4972853;28;20034;-75
2023/04/10 12:26:30;;;;;;;35.60;21.05;;;13.30;99.90;;;;;;4971780;28;20035;-75
2023/04/10 12:28:57;;;;;;;30.88;20.08;;;13.40;99.90;;;;;;4972997;28;20360;-75
2023/04/10 12:31:35;;;;;;;30.17;20.10;;;13.40;99.90;;;;;;4965156;28;20039;-75
2023/04/10 12:34:04;;;;;;;27.55;18.52;;;13.50;99.90;;;;;;4969942;28;20039;-75
2023/04/10 12:36:32;;;;;;;26.13;16.45;;;13.50;99.90;;;;;;4973412;28;20026;-75
2023/04/10 12:38:59;;;;;;;27.65;16.85;;;13.40;99.90;;;;;;4964082;28;20368;-75
2023/04/10 12:41:30;;;;;;;30.48;19.33;;;13.40;99.90;;;;;;4973329;28;20395;-75
2023/04/10 12:44:10;;;;;;;25.92;16.80;;;13.40;99.90;;;;;;4972870;28;20070;-74
2023/04/10 12:46:36;;;;;;;26.92;16.88;;;13.20;99.90;;;;;;4962413;28;20062;-74
2023/04/10 12:49:28;;;;;;;28.15;18.13;;;13.10;99.90;;;;;;4972769;28;20031;-76
2023/04/10 12:51:54;;;;;;;24.85;16.20;;;13.10;99.90;;;;;;4962823;28;20062;-75
2023/04/10 12:54:34;;;;;;;24.00;15.63;;;12.90;99.90;;;;;;4964993;28;20026;-71
2023/04/10 12:57:01;;;;;;;24.10;15.38;;;12.70;99.90;;;;;;4969656;28;20580;-73